Aviation Digital Data Service (ADDS)

Output produced by METARs form (0359 UTC 24 January 2019)
found at http://www.aviationweather.gov/metar/data/
 
METAR text: ZBSJ 240300Z 03003MPS 350V060 5000 HZ NSC 01/M04 Q1025 NOSIG
Conditions at: ZBSJ (ZHENGDING , CN) observed 0300 UTC 24 January 2019
Temperature: 1.0°C (34°F)
Dewpoint: -4.0°C (25°F) [RH = 69%]
Pressure (altimeter): 30.27 inches Hg (1025.0 mb)
Winds: from the NNE (30 degrees) at 7 MPH (6 knots; 3.1 m/s)
Visibility: 3 miles ( 5 km)
Ceiling: at least 12,000 feet AGL
Clouds: sky clear below 12,000 feet AGL
Weather: HZ  (haze)

METAR text: ZBSJ 240200Z 04002MPS 360V070 4000 HZ NSC M01/M05 Q1025 NOSIG
Conditions at: ZBSJ (ZHENGDING , CN) observed 0200 UTC 24 January 2019
Temperature: -1.0°C (30°F)
Dewpoint: -5.0°C (23°F) [RH = 74%]
Pressure (altimeter): 30.27 inches Hg (1025.0 mb)
Winds: from the NE (40 degrees) at 5 MPH (4 knots; 2.1 m/s)
Visibility: 2.49 miles (4.01 km)
Ceiling: at least 12,000 feet AGL
Clouds: sky clear below 12,000 feet AGL
Weather: HZ  (haze)

METAR text: ZBSJ 240100Z 33002MPS 3500 HZ NSC M03/M09 Q1025 NOSIG
Conditions at: ZBSJ (ZHENGDING , CN) observed 0100 UTC 24 January 2019
Temperature: -3.0°C (27°F)
Dewpoint: -9.0°C (16°F) [RH = 63%]
Pressure (altimeter): 30.27 inches Hg (1025.0 mb)
Winds: from the NNW (330 degrees) at 5 MPH (4 knots; 2.1 m/s)
Visibility: 2.17 miles (3.49 km)
Ceiling: at least 12,000 feet AGL
Clouds: sky clear below 12,000 feet AGL
Weather: HZ  (haze)

METAR text: ZBSJ 240000Z 32002MPS 3000 HZ NSC M06/M11 Q1025 NOSIG
Conditions at: ZBSJ (ZHENGDING , CN) observed 0000 UTC 24 January 2019
Temperature: -6.0°C (21°F)
Dewpoint: -11.0°C (12°F) [RH = 68%]
Pressure (altimeter): 30.27 inches Hg (1025.0 mb)
Winds: from the NW (320 degrees) at 5 MPH (4 knots; 2.1 m/s)
Visibility: 1.86 miles (2.99 km)
Ceiling: at least 12,000 feet AGL
Clouds: sky clear below 12,000 feet AGL
Weather: HZ  (haze)

METAR text: ZBSJ 232300Z 35002MPS 4500 HZ NSC M06/M13 Q1025 NOSIG
Conditions at: ZBSJ (ZHENGDING , CN) observed 2300 UTC 23 January 2019
Temperature: -6.0°C (21°F)
Dewpoint: -13.0°C ( 9°F) [RH = 58%]
Pressure (altimeter): 30.27 inches Hg (1025.0 mb)
Winds: from the N (350 degrees) at 5 MPH (4 knots; 2.1 m/s)
Visibility: 2.80 miles (4.51 km)
Ceiling: at least 12,000 feet AGL
Clouds: sky clear below 12,000 feet AGL
Weather: HZ  (haze)

METAR text: ZBSJ 232200Z 33003MPS 4500 HZ NSC M06/M15 Q1024 NOSIG
Conditions at: ZBSJ (ZHENGDING , CN) observed 2200 UTC 23 January 2019
Temperature: -6.0°C (21°F)
Dewpoint: -15.0°C ( 5°F) [RH = 49%]
Pressure (altimeter): 30.24 inches Hg (1024.0 mb)
Winds: from the NNW (330 degrees) at 7 MPH (6 knots; 3.1 m/s)
Visibility: 2.80 miles (4.51 km)
Ceiling: at least 12,000 feet AGL
Clouds: sky clear below 12,000 feet AGL
Weather: HZ  (haze)

METAR text: ZBSJ 232100Z 32003MPS 4500 HZ NSC M06/M14 Q1024 NOSIG
Conditions at: ZBSJ (ZHENGDING , CN) observed 2100 UTC 23 January 2019
Temperature: -6.0°C (21°F)
Dewpoint: -14.0°C ( 7°F) [RH = 53%]
Pressure (altimeter): 30.24 inches Hg (1024.0 mb)
Winds: from the NW (320 degrees) at 7 MPH (6 knots; 3.1 m/s)
Visibility: 2.80 miles (4.51 km)
Ceiling: at least 12,000 feet AGL
Clouds: sky clear below 12,000 feet AGL
Weather: HZ  (haze)

METAR text: ZBSJ 232000Z 28001MPS 3500 HZ NSC M06/M14 Q1024 NOSIG
Conditions at: ZBSJ (ZHENGDING , CN) observed 2000 UTC 23 January 2019
Temperature: -6.0°C (21°F)
Dewpoint: -14.0°C ( 7°F) [RH = 53%]
Pressure (altimeter): 30.24 inches Hg (1024.0 mb)
Winds: from the W (280 degrees) at 2 MPH (2 knots; 1.0 m/s)
Visibility: 2.17 miles (3.49 km)
Ceiling: at least 12,000 feet AGL
Clouds: sky clear below 12,000 feet AGL
Weather: HZ  (haze)

METAR text: ZBSJ 231900Z 29001MPS 3500 HZ NSC M06/M14 Q1025 NOSIG
Conditions at: ZBSJ (ZHENGDING , CN) observed 1900 UTC 23 January 2019
Temperature: -6.0°C (21°F)
Dewpoint: -14.0°C ( 7°F) [RH = 53%]
Pressure (altimeter): 30.27 inches Hg (1025.0 mb)
Winds: from the WNW (290 degrees) at 2 MPH (2 knots; 1.0 m/s)
Visibility: 2.17 miles (3.49 km)
Ceiling: at least 12,000 feet AGL
Clouds: sky clear below 12,000 feet AGL
Weather: HZ  (haze)

METAR text: ZBSJ 231800Z 32002MPS 3500 HZ NSC M04/M14 Q1025 NOSIG
Conditions at: ZBSJ (ZHENGDING , CN) observed 1800 UTC 23 January 2019
Temperature: -4.0°C (25°F)
Dewpoint: -14.0°C ( 7°F) [RH = 46%]
Pressure (altimeter): 30.27 inches Hg (1025.0 mb)
Winds: from the NW (320 degrees) at 5 MPH (4 knots; 2.1 m/s)
Visibility: 2.17 miles (3.49 km)
Ceiling: at least 12,000 feet AGL
Clouds: sky clear below 12,000 feet AGL
Weather: HZ  (haze)

METAR text: ZBSJ 231700Z 33002MPS 3000 HZ NSC M03/M14 Q1024 NOSIG
Conditions at: ZBSJ (ZHENGDING , CN) observed 1700 UTC 23 January 2019
Temperature: -3.0°C (27°F)
Dewpoint: -14.0°C ( 7°F) [RH = 42%]
Pressure (altimeter): 30.24 inches Hg (1024.0 mb)
Winds: from the NNW (330 degrees) at 5 MPH (4 knots; 2.1 m/s)
Visibility: 1.86 miles (2.99 km)
Ceiling: at least 12,000 feet AGL
Clouds: sky clear below 12,000 feet AGL
Weather: HZ  (haze)

METAR text: ZBSJ 231600Z 31001MPS 3000 HZ NSC M02/M13 Q1024 NOSIG
Conditions at: ZBSJ (ZHENGDING , CN) observed 1600 UTC 23 January 2019
Temperature: -2.0°C (28°F)
Dewpoint: -13.0°C ( 9°F) [RH = 43%]
Pressure (altimeter): 30.24 inches Hg (1024.0 mb)
Winds: from the NW (310 degrees) at 2 MPH (2 knots; 1.0 m/s)
Visibility: 1.86 miles (2.99 km)
Ceiling: at least 12,000 feet AGL
Clouds: sky clear below 12,000 feet AGL
Weather: HZ  (haze)

METAR text: ZBSJ 231500Z 32001MPS 3000 HZ NSC M02/M12 Q1024 NOSIG
Conditions at: ZBSJ (ZHENGDING , CN) observed 1500 UTC 23 January 2019
Temperature: -2.0°C (28°F)
Dewpoint: -12.0°C (10°F) [RH = 46%]
Pressure (altimeter): 30.24 inches Hg (1024.0 mb)
Winds: from the NW (320 degrees) at 2 MPH (2 knots; 1.0 m/s)
Visibility: 1.86 miles (2.99 km)
Ceiling: at least 12,000 feet AGL
Clouds: sky clear below 12,000 feet AGL
Weather: HZ  (haze)

METAR text: ZBSJ 231400Z 36001MPS 3000 HZ NSC M02/M14 Q1024 NOSIG
Conditions at: ZBSJ (ZHENGDING , CN) observed 1400 UTC 23 January 2019
Temperature: -2.0°C (28°F)
Dewpoint: -14.0°C ( 7°F) [RH = 39%]
Pressure (altimeter): 30.24 inches Hg (1024.0 mb)
Winds: from the N (360 degrees) at 2 MPH (2 knots; 1.0 m/s)
Visibility: 1.86 miles (2.99 km)
Ceiling: at least 12,000 feet AGL
Clouds: sky clear below 12,000 feet AGL
Weather: HZ  (haze)

METAR text: ZBSJ 231300Z 01001MPS 3000 HZ NSC M01/M13 Q1024 NOSIG
Conditions at: ZBSJ (ZHENGDING , CN) observed 1300 UTC 23 January 2019
Temperature: -1.0°C (30°F)
Dewpoint: -13.0°C ( 9°F) [RH = 40%]
Pressure (altimeter): 30.24 inches Hg (1024.0 mb)
Winds: from the N (10 degrees) at 2 MPH (2 knots; 1.0 m/s)
Visibility: 1.86 miles (2.99 km)
Ceiling: at least 12,000 feet AGL
Clouds: sky clear below 12,000 feet AGL
Weather: HZ  (haze)

METAR text: ZBSJ 231200Z 35002MPS 3000 HZ NSC M02/M13 Q1024 NOSIG
Conditions at: ZBSJ (ZHENGDING , CN) observed 1200 UTC 23 January 2019
Temperature: -2.0°C (28°F)
Dewpoint: -13.0°C ( 9°F) [RH = 43%]
Pressure (altimeter): 30.24 inches Hg (1024.0 mb)
Winds: from the N (350 degrees) at 5 MPH (4 knots; 2.1 m/s)
Visibility: 1.86 miles (2.99 km)
Ceiling: at least 12,000 feet AGL
Clouds: sky clear below 12,000 feet AGL
Weather: HZ  (haze)

METAR text: ZBSJ 231100Z 02001MPS 3000 HZ NSC 00/M14 Q1024 NOSIG
Conditions at: ZBSJ (ZHENGDING , CN) observed 1100 UTC 23 January 2019
Temperature: 0.0°C (32°F)
Dewpoint: -14.0°C ( 7°F) [RH = 34%]
Pressure (altimeter): 30.24 inches Hg (1024.0 mb)
Winds: from the NNE (20 degrees) at 2 MPH (2 knots; 1.0 m/s)
Visibility: 1.86 miles (2.99 km)
Ceiling: at least 12,000 feet AGL
Clouds: sky clear below 12,000 feet AGL
Weather: HZ  (haze)

METAR text: ZBSJ 231000Z 01001MPS 3500 HZ NSC 03/M15 Q1024 NOSIG
Conditions at: ZBSJ (ZHENGDING , CN) observed 1000 UTC 23 January 2019
Temperature: 3.0°C (37°F)
Dewpoint: -15.0°C ( 5°F) [RH = 25%]
Pressure (altimeter): 30.24 inches Hg (1024.0 mb)
Winds: from the N (10 degrees) at 2 MPH (2 knots; 1.0 m/s)
Visibility: 2.17 miles (3.49 km)
Ceiling: at least 12,000 feet AGL
Clouds: sky clear below 12,000 feet AGL
Weather: HZ  (haze)

METAR text: ZBSJ 230900Z 08001MPS 3500 HZ NSC 08/M15 Q1024 NOSIG
Conditions at: ZBSJ (ZHENGDING , CN) observed 0900 UTC 23 January 2019
Temperature: 8.0°C (46°F)
Dewpoint: -15.0°C ( 5°F) [RH = 18%]
Pressure (altimeter): 30.24 inches Hg (1024.0 mb)
Winds: from the E (80 degrees) at 2 MPH (2 knots; 1.0 m/s)
Visibility: 2.17 miles (3.49 km)
Ceiling: at least 12,000 feet AGL
Clouds: sky clear below 12,000 feet AGL
Weather: HZ  (haze)

METAR text: ZBSJ 230800Z 13002MPS 100V160 5000 HZ NSC 11/M16 Q1024 NOSIG
Conditions at: ZBSJ (ZHENGDING , CN) observed 0800 UTC 23 January 2019
Temperature: 11.0°C (52°F)
Dewpoint: -16.0°C ( 3°F) [RH = 13%]
Pressure (altimeter): 30.24 inches Hg (1024.0 mb)
Winds: from the SE (130 degrees) at 5 MPH (4 knots; 2.1 m/s)
Visibility: 3 miles ( 5 km)
Ceiling: at least 12,000 feet AGL
Clouds: sky clear below 12,000 feet AGL
Weather: HZ  (haze)

METAR text: ZBSJ 230700Z 09003MPS 060V130 6000 NSC 11/M16 Q1023 NOSIG
Conditions at: ZBSJ (ZHENGDING , CN) observed 0700 UTC 23 January 2019
Temperature: 11.0°C (52°F)
Dewpoint: -16.0°C ( 3°F) [RH = 13%]
Pressure (altimeter): 30.21 inches Hg (1023.0 mb)
Winds: from the E (90 degrees) at 7 MPH (6 knots; 3.1 m/s)
Visibility: 4 miles ( 6 km)
Ceiling: at least 12,000 feet AGL
Clouds: sky clear below 12,000 feet AGL
Weather: no significant weather observed at this time

METAR text: ZBSJ 230600Z 10002MPS 050V160 8000 NSC 11/M16 Q1024 NOSIG
Conditions at: ZBSJ (ZHENGDING , CN) observed 0600 UTC 23 January 2019
Temperature: 11.0°C (52°F)
Dewpoint: -16.0°C ( 3°F) [RH = 13%]
Pressure (altimeter): 30.24 inches Hg (1024.0 mb)
Winds: from the E (100 degrees) at 5 MPH (4 knots; 2.1 m/s)
Visibility: 5 miles ( 8 km)
Ceiling: at least 12,000 feet AGL
Clouds: sky clear below 12,000 feet AGL
Weather: no significant weather observed at this time

METAR text: ZBSJ 230500Z 13002MPS 090V160 5000 HZ NSC 10/M16 Q1024 NOSIG
Conditions at: ZBSJ (ZHENGDING , CN) observed 0500 UTC 23 January 2019
Temperature: 10.0°C (50°F)
Dewpoint: -16.0°C ( 3°F) [RH = 14%]
Pressure (altimeter): 30.24 inches Hg (1024.0 mb)
Winds: from the SE (130 degrees) at 5 MPH (4 knots; 2.1 m/s)
Visibility: 3 miles ( 5 km)
Ceiling: at least 12,000 feet AGL
Clouds: sky clear below 12,000 feet AGL
Weather: HZ  (haze)

METAR text: ZBSJ 230400Z VRB01MPS 4000 HZ NSC 09/M17 Q1025 NOSIG
Conditions at: ZBSJ (ZHENGDING , CN) observed 0400 UTC 23 January 2019
Temperature: 9.0°C (48°F)
Dewpoint: -17.0°C ( 1°F) [RH = 14%]
Pressure (altimeter): 30.27 inches Hg (1025.0 mb)
Winds: variable direction winds at 2 MPH (2 knots; 1.0 m/s)
Visibility: 2.49 miles (4.01 km)
Ceiling: at least 12,000 feet AGL
Clouds: sky clear below 12,000 feet AGL
Weather: HZ  (haze)

METAR text: ZBSJ 230300Z 33002MPS 290V010 3000 HZ NSC 06/M16 Q1026 NOSIG
Conditions at: ZBSJ (ZHENGDING , CN) observed 0300 UTC 23 January 2019
Temperature: 6.0°C (43°F)
Dewpoint: -16.0°C ( 3°F) [RH = 19%]
Pressure (altimeter): 30.30 inches Hg (1026.0 mb)
Winds: from the NNW (330 degrees) at 5 MPH (4 knots; 2.1 m/s)
Visibility: 1.86 miles (2.99 km)
Ceiling: at least 12,000 feet AGL
Clouds: sky clear below 12,000 feet AGL
Weather: HZ  (haze)

METAR text: ZBSJ 230200Z 32002MPS 3000 HZ NSC 04/M16 Q1025 NOSIG
Conditions at: ZBSJ (ZHENGDING , CN) observed 0200 UTC 23 January 2019
Temperature: 4.0°C (39°F)
Dewpoint: -16.0°C ( 3°F) [RH = 22%]
Pressure (altimeter): 30.27 inches Hg (1025.0 mb)
Winds: from the NW (320 degrees) at 5 MPH (4 knots; 2.1 m/s)
Visibility: 1.86 miles (2.99 km)
Ceiling: at least 12,000 feet AGL
Clouds: sky clear below 12,000 feet AGL
Weather: HZ  (haze)

METAR text: ZBSJ 230100Z 27001MPS 3000 HZ NSC M02/M14 Q1025 NOSIG
Conditions at: ZBSJ (ZHENGDING , CN) observed 0100 UTC 23 January 2019
Temperature: -2.0°C (28°F)
Dewpoint: -14.0°C ( 7°F) [RH = 39%]
Pressure (altimeter): 30.27 inches Hg (1025.0 mb)
Winds: from the W (270 degrees) at 2 MPH (2 knots; 1.0 m/s)
Visibility: 1.86 miles (2.99 km)
Ceiling: at least 12,000 feet AGL
Clouds: sky clear below 12,000 feet AGL
Weather: HZ  (haze)

METAR text: ZBSJ 230000Z 32002MPS 4500 HZ NSC M06/M16 Q1024 NOSIG
Conditions at: ZBSJ (ZHENGDING , CN) observed 0000 UTC 23 January 2019
Temperature: -6.0°C (21°F)
Dewpoint: -16.0°C ( 3°F) [RH = 45%]
Pressure (altimeter): 30.24 inches Hg (1024.0 mb)
Winds: from the NW (320 degrees) at 5 MPH (4 knots; 2.1 m/s)
Visibility: 2.80 miles (4.51 km)
Ceiling: at least 12,000 feet AGL
Clouds: sky clear below 12,000 feet AGL
Weather: HZ  (haze)

METAR text: ZBSJ 222300Z 32002MPS 5000 HZ NSC M07/M17 Q1023 NOSIG
Conditions at: ZBSJ (ZHENGDING , CN) observed 2300 UTC 22 January 2019
Temperature: -7.0°C (19°F)
Dewpoint: -17.0°C ( 1°F) [RH = 45%]
Pressure (altimeter): 30.21 inches Hg (1023.0 mb)
Winds: from the NW (320 degrees) at 5 MPH (4 knots; 2.1 m/s)
Visibility: 3 miles ( 5 km)
Ceiling: at least 12,000 feet AGL
Clouds: sky clear below 12,000 feet AGL
Weather: HZ  (haze)

METAR text: ZBSJ 222200Z 35002MPS 320V030 5000 HZ NSC M05/M17 Q1022 NOSIG
Conditions at: ZBSJ (ZHENGDING , CN) observed 2200 UTC 22 January 2019
Temperature: -5.0°C (23°F)
Dewpoint: -17.0°C ( 1°F) [RH = 38%]
Pressure (altimeter): 30.18 inches Hg (1022.0 mb)
Winds: from the N (350 degrees) at 5 MPH (4 knots; 2.1 m/s)
Visibility: 3 miles ( 5 km)
Ceiling: at least 12,000 feet AGL
Clouds: sky clear below 12,000 feet AGL
Weather: HZ  (haze)

METAR text: ZBSJ 222100Z 33002MPS 5000 HZ NSC M03/M17 Q1021 NOSIG
Conditions at: ZBSJ (ZHENGDING , CN) observed 2100 UTC 22 January 2019
Temperature: -3.0°C (27°F)
Dewpoint: -17.0°C ( 1°F) [RH = 33%]
Pressure (altimeter): 30.15 inches Hg (1021.0 mb)
Winds: from the NNW (330 degrees) at 5 MPH (4 knots; 2.1 m/s)
Visibility: 3 miles ( 5 km)
Ceiling: at least 12,000 feet AGL
Clouds: sky clear below 12,000 feet AGL
Weather: HZ  (haze)

METAR text: ZBSJ 222000Z 33003MPS 4500 HZ NSC M03/M17 Q1021 NOSIG
Conditions at: ZBSJ (ZHENGDING , CN) observed 2000 UTC 22 January 2019
Temperature: -3.0°C (27°F)
Dewpoint: -17.0°C ( 1°F) [RH = 33%]
Pressure (altimeter): 30.15 inches Hg (1021.0 mb)
Winds: from the NNW (330 degrees) at 7 MPH (6 knots; 3.1 m/s)
Visibility: 2.80 miles (4.51 km)
Ceiling: at least 12,000 feet AGL
Clouds: sky clear below 12,000 feet AGL
Weather: HZ  (haze)

METAR text: ZBSJ 221900Z 31001MPS 4500 HZ NSC M04/M16 Q1021 NOSIG
Conditions at: ZBSJ (ZHENGDING , CN) observed 1900 UTC 22 January 2019
Temperature: -4.0°C (25°F)
Dewpoint: -16.0°C ( 3°F) [RH = 39%]
Pressure (altimeter): 30.15 inches Hg (1021.0 mb)
Winds: from the NW (310 degrees) at 2 MPH (2 knots; 1.0 m/s)
Visibility: 2.80 miles (4.51 km)
Ceiling: at least 12,000 feet AGL
Clouds: sky clear below 12,000 feet AGL
Weather: HZ  (haze)

METAR text: ZBSJ 221800Z VRB01MPS 3500 HZ NSC M05/M17 Q1021 NOSIG
Conditions at: ZBSJ (ZHENGDING , CN) observed 1800 UTC 22 January 2019
Temperature: -5.0°C (23°F)
Dewpoint: -17.0°C ( 1°F) [RH = 38%]
Pressure (altimeter): 30.15 inches Hg (1021.0 mb)
Winds: variable direction winds at 2 MPH (2 knots; 1.0 m/s)
Visibility: 2.17 miles (3.49 km)
Ceiling: at least 12,000 feet AGL
Clouds: sky clear below 12,000 feet AGL
Weather: HZ  (haze)

METAR text: ZBSJ 221700Z 29003MPS 3000 HZ NSC M07/M17 Q1020 NOSIG
Conditions at: ZBSJ (ZHENGDING , CN) observed 1700 UTC 22 January 2019
Temperature: -7.0°C (19°F)
Dewpoint: -17.0°C ( 1°F) [RH = 45%]
Pressure (altimeter): 30.12 inches Hg (1020.0 mb)
Winds: from the WNW (290 degrees) at 7 MPH (6 knots; 3.1 m/s)
Visibility: 1.86 miles (2.99 km)
Ceiling: at least 12,000 feet AGL
Clouds: sky clear below 12,000 feet AGL
Weather: HZ  (haze)

METAR text: ZBSJ 221600Z 31002MPS 3500 HZ NSC M02/M15 Q1020 NOSIG
Conditions at: ZBSJ (ZHENGDING , CN) observed 1600 UTC 22 January 2019
Temperature: -2.0°C (28°F)
Dewpoint: -15.0°C ( 5°F) [RH = 36%]
Pressure (altimeter): 30.12 inches Hg (1020.0 mb)
Winds: from the NW (310 degrees) at 5 MPH (4 knots; 2.1 m/s)
Visibility: 2.17 miles (3.49 km)
Ceiling: at least 12,000 feet AGL
Clouds: sky clear below 12,000 feet AGL
Weather: HZ  (haze)

Forecast for: ZBSJ (ZHENGDING , CN)
Text: TAF ZBSJ 231904Z 2400/2424 36004MPS 3000 HZ NSC TX10/2406Z TNM08/21Z
Forecast period: 0000 UTC 24 January 2019 to 0000 UTC 25 January 2019
Forecast type: FROM: standard forecast or significant change
Winds: from the N (360 degrees) at 9 MPH (8 knots; 4.1 m/s)
Visibility: 1.86 miles (2.99 km)
Ceiling: unknown
Clouds: missing
Weather: HZ  (haze)